Time;durP1;ratioP1;P1;durP2;ratioP2;P2;SDS_P1;SDS_P2;PMS_P1;PMS_P2;Temp;Humidity;BMP_temperature;BMP_pressure;BME280_temperature;BME280_humidity;BME280_pressure;Samples;Min_cycle;Max_cycle;Signal;HPM_P1;HPM_P2
2021/08/03 00:02:35;;;;;;;;;;;12.40;99.90;;;;;;5073418;28;19924;-55
2021/08/03 00:05:27;;;;;;;;;;;12.40;99.90;;;;;;5075458;28;19924;-55
2021/08/03 00:08:17;;;;;;;;;;;12.30;99.90;;;;;;5075217;28;19924;-55
2021/08/03 00:11:11;;;;;;;;;;;12.30;99.90;;;;;;5075703;28;19931;-55
2021/08/03 00:14:00;;;;;;;;;;;12.30;99.90;;;;;;5075517;28;19925;-55
2021/08/03 00:16:49;;;;;;;;;;;12.20;99.90;;;;;;5068594;28;19924;-55
2021/08/03 00:19:38;;;;;;;;;;;12.20;99.90;;;;;;5098044;28;19924;-55
2021/08/03 00:22:28;;;;;;;;;;;12.30;99.90;;;;;;5099593;28;19935;-55
2021/08/03 00:25:17;;;;;;;;;;;12.30;99.90;;;;;;5077529;28;19967;-55
2021/08/03 00:28:08;;;;;;;;;;;12.30;99.90;;;;;;5077412;28;19928;-55
2021/08/03 00:30:57;;;;;;;;;;;12.30;99.90;;;;;;5066272;28;19930;-56
2021/08/03 00:33:47;;;;;;;;;;;12.30;99.90;;;;;;5069470;28;19928;-56
2021/08/03 00:36:37;;;;;;;;;;;12.30;99.90;;;;;;5074419;28;19927;-55
2021/08/03 00:39:30;;;;;;;;;;;12.20;99.90;;;;;;5077292;28;19994;-58
2021/08/03 00:42:20;;;;;;;;;;;12.20;99.90;;;;;;5070693;28;20280;-56
2021/08/03 00:45:11;;;;;;;;;;;12.30;99.90;;;;;;5067174;28;20020;-56
2021/08/03 00:48:06;;;;;;;;;;;12.20;99.90;;;;;;5099500;28;20031;-57
2021/08/03 00:50:54;;;;;;;;;;;12.20;99.90;;;;;;5073913;28;20284;-56
2021/08/03 00:53:43;;;;;;;;;;;12.20;99.90;;;;;;5074003;28;19928;-57
2021/08/03 00:56:34;;;;;;;;;;;12.20;99.90;;;;;;5098339;27;19931;-56
2021/08/03 00:59:23;;;;;;;;;;;12.20;99.90;;;;;;5073935;28;19929;-57
2021/08/03 01:02:14;;;;;;;;;;;12.20;99.90;;;;;;5068440;28;19974;-57
2021/08/03 01:05:05;;;;;;;;;;;12.20;99.90;;;;;;5073222;28;20051;-56
2021/08/03 01:07:59;;;;;;;;;;;12.20;99.90;;;;;;5101506;28;19924;-57
2021/08/03 01:10:53;;;;;;;;;;;12.20;99.90;;;;;;5085998;28;19924;-56
2021/08/03 01:13:47;;;;;;;;;;;12.20;99.90;;;;;;5098730;27;19931;-56
2021/08/03 01:16:42;;;;;;;;;;;12.20;99.90;;;;;;5068392;28;19931;-56
2021/08/03 01:19:38;;;;;;;;;;;12.20;99.90;;;;;;5074231;28;20010;-56
2021/08/03 01:22:46;;;;;;;;;;;12.10;99.90;;;;;;5078506;28;20380;-56
2021/08/03 01:25:40;;;;;;;;;;;12.00;99.90;;;;;;5075616;28;19924;-56
2021/08/03 01:28:31;;;;;;;;;;;11.90;99.90;;;;;;5100939;28;19924;-57
2021/08/03 01:31:21;;;;;;;;;;;11.90;99.90;;;;;;5070576;28;19931;-57
2021/08/03 01:34:19;;;;;;;;;;;11.90;99.90;;;;;;5098208;27;20257;-60
2021/08/03 01:37:16;;;;;;;;;;;11.90;99.90;;;;;;5095682;28;19924;-56
2021/08/03 01:40:07;;;;;;;;;;;11.90;99.90;;;;;;5098920;28;19931;-57
2021/08/03 01:42:58;;;;;;;;;;;11.80;99.90;;;;;;5097299;27;19935;-57
2021/08/03 01:45:52;;;;;;;;;;;11.80;99.90;;;;;;5069291;28;19925;-56
2021/08/03 01:48:42;;;;;;;;;;;11.70;99.90;;;;;;5074207;28;20357;-56
2021/08/03 01:51:32;;;;;;;;;;;11.70;99.90;;;;;;5076992;28;19932;-57
2021/08/03 01:54:24;;;;;;;;;;;11.70;99.90;;;;;;5099189;28;20070;-56
2021/08/03 01:57:14;;;;;;;;;;;11.80;99.90;;;;;;5071667;28;19995;-57
2021/08/03 02:00:05;;;;;;;;;;;11.80;99.90;;;;;;5095546;27;19928;-56
2021/08/03 02:03:05;;;;;;;;;;;11.80;99.90;;;;;;5076697;28;19963;-56
2021/08/03 02:05:57;;;;;;;;;;;11.80;99.90;;;;;;5097324;28;19931;-57
2021/08/03 02:08:51;;;;;;;;;;;11.70;99.90;;;;;;5076065;28;19924;-57
2021/08/03 02:11:43;;;;;;;;;;;11.60;99.90;;;;;;5075580;28;19932;-57
2021/08/03 02:14:32;;;;;;;;;;;11.60;99.90;;;;;;5077504;28;20420;-56
2021/08/03 02:17:31;;;;;;;;;;;11.60;99.90;;;;;;5093165;28;19924;-56
2021/08/03 02:20:34;;;;;;;;;;;11.50;99.90;;;;;;5106066;28;19924;-57
2021/08/03 02:23:27;;;;;;;;;;;11.50;99.90;;;;;;5097294;28;19928;-57
2021/08/03 02:26:23;;;;;;;;;;;11.50;99.90;;;;;;5077636;28;20300;-57
2021/08/03 02:29:13;;;;;;;;;;;11.50;99.90;;;;;;5100449;28;19924;-57
2021/08/03 02:32:05;;;;;;;;;;;11.50;99.90;;;;;;5094358;28;20525;-57
2021/08/03 02:34:55;;;;;;;;;;;11.40;99.90;;;;;;5106079;28;19931;-56
2021/08/03 02:37:48;;;;;;;;;;;11.40;99.90;;;;;;5072364;28;20010;-56
2021/08/03 02:40:40;;;;;;;;;;;11.40;99.90;;;;;;5095847;28;19943;-57
2021/08/03 02:43:38;;;;;;;;;;;11.40;99.90;;;;;;5070999;28;20661;-56
2021/08/03 02:46:54;;;;;;;;;;;11.40;99.90;;;;;;5064246;28;20004;-57
2021/08/03 02:49:47;;;;;;;;;;;11.40;99.90;;;;;;5075761;28;19928;-57
2021/08/03 02:52:38;;;;;;;;;;;11.30;99.90;;;;;;5073729;28;19924;-56
2021/08/03 02:55:32;;;;;;;;;;;11.30;99.90;;;;;;5096885;28;19982;-56
2021/08/03 02:58:26;;;;;;;;;;;11.30;99.90;;;;;;5100932;27;19939;-56
2021/08/03 03:01:15;;;;;;;;;;;11.30;99.90;;;;;;5064529;28;19925;-57
2021/08/03 03:04:08;;;;;;;;;;;11.20;99.90;;;;;;5080186;28;20670;-56
2021/08/03 03:06:59;;;;;;;;;;;11.20;99.90;;;;;;5069323;28;19928;-57
2021/08/03 03:09:52;;;;;;;;;;;11.20;99.90;;;;;;5097483;28;19977;-57
2021/08/03 03:12:44;;;;;;;;;;;11.10;99.90;;;;;;5096757;28;19928;-58
2021/08/03 03:15:33;;;;;;;;;;;11.10;99.90;;;;;;5066954;28;20411;-57
2021/08/03 03:18:23;;;;;;;;;;;11.10;99.90;;;;;;5092030;28;19928;-56
2021/08/03 03:21:11;;;;;;;;;;;11.10;99.90;;;;;;5068927;28;19924;-56
2021/08/03 03:24:00;;;;;;;;;;;11.00;99.90;;;;;;5078478;28;20269;-56
2021/08/03 03:26:51;;;;;;;;;;;11.00;99.90;;;;;;5080293;28;19940;-56
2021/08/03 03:29:42;;;;;;;;;;;11.00;99.90;;;;;;5099123;28;19928;-56
2021/08/03 03:33:01;;;;;;;;;;;11.00;99.90;;;;;;5071787;28;19924;-57
2021/08/03 03:35:54;;;;;;;;;;;10.90;99.90;;;;;;5096257;28;20430;-57
2021/08/03 03:38:44;;;;;;;;;;;10.90;99.90;;;;;;5096408;28;20077;-56
2021/08/03 03:41:34;;;;;;;;;;;11.00;99.90;;;;;;5099673;27;19924;-57
2021/08/03 03:44:23;;;;;;;;;;;10.90;99.90;;;;;;5071245;28;20384;-57
2021/08/03 03:47:17;;;;;;;;;;;10.90;99.90;;;;;;5066120;28;19924;-57
2021/08/03 03:50:12;;;;;;;;;;;10.90;99.90;;;;;;5099160;28;19939;-57
2021/08/03 03:53:04;;;;;;;;;;;10.90;99.90;;;;;;5072830;28;19928;-56
2021/08/03 03:55:54;;;;;;;;;;;10.90;99.90;;;;;;5097874;28;19925;-56
2021/08/03 03:58:46;;;;;;;;;;;10.90;99.90;;;;;;5073226;28;19924;-56
2021/08/03 04:01:36;;;;;;;;;;;10.90;99.90;;;;;;5075899;28;19925;-56
2021/08/03 04:04:51;;;;;;;;;;;10.90;99.90;;;;;;5069520;28;20031;-56
2021/08/03 04:07:41;;;;;;;;;;;11.00;99.90;;;;;;5069872;28;19935;-58
2021/08/03 04:10:31;;;;;;;;;;;11.10;99.90;;;;;;5054548;28;19933;-56
2021/08/03 04:13:20;;;;;;;;;;;11.10;99.90;;;;;;5065636;28;19929;-56
2021/08/03 04:16:09;;;;;;;;;;;11.10;99.90;;;;;;5065856;28;19931;-56
2021/08/03 04:18:57;;;;;;;;;;;11.10;99.90;;;;;;5085783;28;19935;-57
2021/08/03 04:21:47;;;;;;;;;;;11.10;99.90;;;;;;5068500;28;19931;-57
2021/08/03 04:24:36;;;;;;;;;;;11.10;99.90;;;;;;5069643;28;19925;-57
2021/08/03 04:27:24;;;;;;;;;;;11.20;99.90;;;;;;5069978;28;19924;-56
2021/08/03 04:30:14;;;;;;;;;;;11.20;99.90;;;;;;5064364;28;19928;-57
2021/08/03 04:33:03;;;;;;;;;;;11.30;99.90;;;;;;5078842;28;20066;-57
2021/08/03 04:35:51;;;;;;;;;;;11.40;99.90;;;;;;5064073;28;19924;-57
2021/08/03 04:38:41;;;;;;;;;;;11.40;99.90;;;;;;5089061;28;19935;-56
2021/08/03 04:41:30;;;;;;;;;;;11.60;99.90;;;;;;5083318;28;19977;-57
2021/08/03 04:44:19;;;;;;;;;;;11.60;99.90;;;;;;5079753;28;19924;-56
2021/08/03 04:47:08;;;;;;;;;;;11.70;99.90;;;;;;5074549;28;19924;-57
2021/08/03 04:49:57;;;;;;;;;;;11.80;99.90;;;;;;5079986;28;19991;-56
2021/08/03 04:52:45;;;;;;;;;;;11.80;99.90;;;;;;5089541;28;19963;-57
2021/08/03 04:55:35;;;;;;;;;;;11.90;99.90;;;;;;5085330;28;19924;-56
2021/08/03 04:58:23;;;;;;;;;;;12.00;99.90;;;;;;5078034;28;20264;-56
2021/08/03 05:01:14;;;;;;;;;;;12.00;99.90;;;;;;5058964;28;19940;-57
2021/08/03 05:04:02;;;;;;;;;;;12.00;99.90;;;;;;5071091;28;19925;-57
2021/08/03 05:06:52;;;;;;;;;;;12.00;99.90;;;;;;5074172;28;19924;-56
2021/08/03 05:09:40;;;;;;;;;;;12.00;99.90;;;;;;5079868;28;19928;-56
2021/08/03 05:12:32;;;;;;;;;;;12.10;99.90;;;;;;5079623;28;19928;-57
2021/08/03 05:15:20;;;;;;;;;;;12.20;99.90;;;;;;5083606;28;19928;-56
2021/08/03 05:18:09;;;;;;;;;;;12.30;99.90;;;;;;5080255;28;19935;-56
2021/08/03 05:20:57;;;;;;;;;;;12.50;99.90;;;;;;5072120;28;19925;-56
2021/08/03 05:23:46;;;;;;;;;;;12.70;99.90;;;;;;5072315;28;19924;-56
2021/08/03 05:26:35;;;;;;;;;;;12.90;99.90;;;;;;5073248;28;20015;-56
2021/08/03 05:29:25;;;;;;;;;;;13.20;99.90;;;;;;5097773;27;20288;-57
2021/08/03 05:32:14;;;;;;;;;;;13.50;99.90;;;;;;5065233;28;19925;-56
2021/08/03 05:35:03;;;;;;;;;;;13.80;99.90;;;;;;5074128;28;19947;-56
2021/08/03 05:37:52;;;;;;;;;;;14.10;99.90;;;;;;5100056;28;19928;-56
2021/08/03 05:40:41;;;;;;;;;;;14.30;99.90;;;;;;5070769;28;19928;-56
2021/08/03 05:43:30;;;;;;;;;;;14.60;99.90;;;;;;5074538;28;20065;-57
2021/08/03 05:46:20;;;;;;;;;;;14.70;99.90;;;;;;5074456;28;19925;-57
2021/08/03 05:49:08;;;;;;;;;;;14.90;99.90;;;;;;5068851;28;19925;-57
2021/08/03 05:51:57;;;;;;;;;;;14.90;99.90;;;;;;5077023;28;20287;-56
2021/08/03 05:54:45;;;;;;;;;;;15.20;99.90;;;;;;5080935;28;20395;-57
2021/08/03 05:57:34;;;;;;;;;;;15.20;99.90;;;;;;5070189;28;20005;-57
2021/08/03 06:00:27;;;;;;;;;;;15.30;99.90;;;;;;5066063;28;19928;-56
2021/08/03 06:03:18;;;;;;;;;;;15.40;99.90;;;;;;5073581;28;20381;-57
2021/08/03 06:06:07;;;;;;;;;;;15.40;99.90;;;;;;5084251;28;20032;-57
2021/08/03 06:08:57;;;;;;;;;;;15.70;99.90;;;;;;5068786;28;19925;-57
2021/08/03 06:11:46;;;;;;;;;;;16.30;99.90;;;;;;5082960;28;20272;-56
2021/08/03 06:14:37;;;;;;;;;;;16.40;99.90;;;;;;5083459;28;19924;-57
2021/08/03 06:17:34;;;;;;;;;;;16.60;99.90;;;;;;5081302;28;19928;-54
2021/08/03 06:20:24;;;;;;;;;;;16.40;99.90;;;;;;5086307;28;20609;-56
2021/08/03 06:23:13;;;;;;;;;;;16.40;99.90;;;;;;5089176;28;20380;-55
2021/08/03 06:26:02;;;;;;;;;;;16.50;99.90;;;;;;5071381;28;19924;-55
2021/08/03 06:28:54;;;;;;;;;;;16.90;99.90;;;;;;5068993;28;19925;-55
2021/08/03 06:31:43;;;;;;;;;;;17.50;99.90;;;;;;5069749;28;19931;-55
2021/08/03 06:34:34;;;;;;;;;;;17.90;99.90;;;;;;5073928;28;20360;-55
2021/08/03 06:37:24;;;;;;;;;;;18.00;99.90;;;;;;5080460;28;20368;-55
2021/08/03 06:40:12;;;;;;;;;;;17.90;99.90;;;;;;5071503;28;19925;-55
2021/08/03 06:43:03;;;;;;;;;;;17.40;99.90;;;;;;5083822;28;19932;-55
2021/08/03 06:45:55;;;;;;;;;;;17.30;99.90;;;;;;5080364;28;19924;-55
2021/08/03 06:48:47;;;;;;;;;;;17.60;99.90;;;;;;5089410;28;19931;-55
2021/08/03 06:51:37;;;;;;;;;;;17.90;99.90;;;;;;5079639;28;19928;-56
2021/08/03 06:54:28;;;;;;;;;;;17.90;99.90;;;;;;5085345;28;19924;-55
2021/08/03 06:57:17;;;;;;;;;;;18.70;99.90;;;;;;5079405;28;19924;-58
2021/08/03 07:00:06;;;;;;;;;;;20.20;99.90;;;;;;5074074;28;20257;-54
2021/08/03 07:02:56;;;;;;;;;;;21.60;99.90;;;;;;5078485;28;20349;-55
2021/08/03 07:05:51;;;;;;;;;;;21.40;99.90;;;;;;5088077;28;20344;-55
2021/08/03 07:08:40;;;;;;;;;;;21.10;99.90;;;;;;5082059;28;19939;-56
2021/08/03 07:11:30;;;;;;;;;;;21.50;99.90;;;;;;5086190;28;20023;-56
2021/08/03 07:14:21;;;;;;;;;;;22.10;99.90;;;;;;5083323;28;19936;-55
2021/08/03 07:17:12;;;;;;;;;;;22.60;99.90;;;;;;5074715;28;20288;-56
2021/08/03 07:20:01;;;;;;;;;;;23.40;98.70;;;;;;5075269;28;19928;-57
2021/08/03 07:22:50;;;;;;;;;;;25.10;96.50;;;;;;5080402;28;20446;-58
2021/08/03 07:25:39;;;;;;;;;;;28.30;90.80;;;;;;5083415;28;20399;-56
2021/08/03 07:28:55;;;;;;;;;;;28.80;79.90;;;;;;5082518;28;19974;-55
2021/08/03 07:31:43;;;;;;;;;;;26.10;87.30;;;;;;5068620;28;20272;-55
2021/08/03 07:34:32;;;;;;;;;;;24.50;91.70;;;;;;5082072;28;20342;-55
2021/08/03 07:37:23;;;;;;;;;;;23.90;94.50;;;;;;5079267;28;19928;-55
2021/08/03 07:40:13;;;;;;;;;;;22.80;96.60;;;;;;5077684;28;20391;-55
2021/08/03 07:43:02;;;;;;;;;;;22.30;96.60;;;;;;5078138;28;19928;-55
2021/08/03 07:45:52;;;;;;;;;;;21.60;99.30;;;;;;5059328;28;20006;-54
2021/08/03 07:48:41;;;;;;;;;;;21.00;99.90;;;;;;5074646;28;19932;-55
2021/08/03 07:51:30;;;;;;;;;;;20.80;99.90;;;;;;5078629;28;19936;-55
2021/08/03 07:54:19;;;;;;;;;;;20.40;99.90;;;;;;5080712;28;19932;-55
2021/08/03 07:57:07;;;;;;;;;;;20.90;99.90;;;;;;5077059;28;20530;-55
2021/08/03 07:59:55;;;;;;;;;;;21.50;99.90;;;;;;5076367;28;19924;-55
2021/08/03 08:02:45;;;;;;;;;;;22.30;99.90;;;;;;5071337;28;20257;-58
2021/08/03 08:05:36;;;;;;;;;;;23.00;98.50;;;;;;5070048;28;19943;-55
2021/08/03 08:08:28;;;;;;;;;;;24.00;97.10;;;;;;5066107;28;20033;-55
2021/08/03 08:11:17;;;;;;;;;;;24.90;95.90;;;;;;5067404;28;20058;-56
2021/08/03 08:14:06;;;;;;;;;;;24.50;95.30;;;;;;5069124;28;19925;-55
2021/08/03 08:16:55;;;;;;;;;;;23.50;96.80;;;;;;5075509;28;20427;-57
2021/08/03 08:19:44;;;;;;;;;;;24.10;96.90;;;;;;5084539;28;19924;-55
2021/08/03 08:22:33;;;;;;;;;;;24.30;95.30;;;;;;5085542;28;19928;-56
2021/08/03 08:25:22;;;;;;;;;;;23.50;96.60;;;;;;5090679;28;19990;-56
2021/08/03 08:28:11;;;;;;;;;;;22.90;96.50;;;;;;5080753;28;20375;-58
2021/08/03 08:30:59;;;;;;;;;;;23.10;96.20;;;;;;5064515;28;19924;-55
2021/08/03 08:33:48;;;;;;;;;;;24.00;96.80;;;;;;5074004;28;20017;-55
2021/08/03 08:36:39;;;;;;;;;;;25.30;94.70;;;;;;5069232;28;20265;-58
2021/08/03 08:39:30;;;;;;;;;;;25.40;92.70;;;;;;5071673;28;19928;-56
2021/08/03 08:42:19;;;;;;;;;;;24.20;93.80;;;;;;5070607;28;20038;-56
2021/08/03 08:45:09;;;;;;;;;;;24.70;94.00;;;;;;5083817;28;19993;-55
2021/08/03 08:47:58;;;;;;;;;;;25.90;93.90;;;;;;5074868;28;19924;-56
2021/08/03 08:50:47;;;;;;;;;;;30.50;79.00;;;;;;5075085;28;20031;-55
2021/08/03 08:53:37;;;;;;;;;;;33.80;63.00;;;;;;5088104;28;19924;-56
2021/08/03 08:56:27;;;;;;;;;;;33.90;54.90;;;;;;5074260;28;20360;-56
2021/08/03 08:59:15;;;;;;;;;;;31.10;62.80;;;;;;5074030;28;19964;-56
2021/08/03 09:02:28;;;;;;;;;;;27.90;71.10;;;;;;5073210;28;19947;-56
2021/08/03 09:05:17;;;;;;;;;;;25.70;78.60;;;;;;5073455;28;20007;-59
2021/08/03 09:08:06;;;;;;;;;;;23.70;87.20;;;;;;5085211;28;19952;-56
2021/08/03 09:10:58;;;;;;;;;;;23.40;91.40;;;;;;5080661;28;19931;-59
2021/08/03 09:13:48;;;;;;;;;;;23.40;92.40;;;;;;5077809;28;20277;-56
2021/08/03 09:16:44;;;;;;;;;;;23.70;92.60;;;;;;5066389;28;19968;-56
2021/08/03 09:19:35;;;;;;;;;;;23.70;91.40;;;;;;5079109;28;20390;-56
2021/08/03 09:22:28;;;;;;;;;;;23.30;91.30;;;;;;5081295;28;19924;-56
2021/08/03 09:25:51;;;;;;;;;;;22.20;92.90;;;;;;5065674;28;19951;-55
2021/08/03 09:28:57;;;;;;;;;;;22.30;93.70;;;;;;5072111;28;19936;-56
2021/08/03 09:31:51;;;;;;;;;;;22.80;93.70;;;;;;5069725;28;19924;-56
2021/08/03 09:34:39;;;;;;;;;;;22.70;93.60;;;;;;5081407;28;19928;-56
2021/08/03 09:37:32;;;;;;;;;;;22.20;94.20;;;;;;5075979;28;19929;-58
2021/08/03 09:40:21;;;;;;;;;;;22.00;94.30;;;;;;5073004;28;19924;-56
2021/08/03 09:43:11;;;;;;;;;;;22.50;94.00;;;;;;5074478;28;19928;-55
2021/08/03 09:46:01;;;;;;;;;;;23.20;93.50;;;;;;5077600;28;19932;-56
2021/08/03 09:48:50;;;;;;;;;;;22.60;93.00;;;;;;5080665;28;20343;-56
2021/08/03 09:51:39;;;;;;;;;;;21.70;94.00;;;;;;5063404;28;19925;-56
2021/08/03 09:54:27;;;;;;;;;;;21.20;95.50;;;;;;5073422;28;19929;-56
2021/08/03 09:57:23;;;;;;;;;;;21.80;96.10;;;;;;5074420;28;20390;-56
2021/08/03 10:00:34;;;;;;;;;;;21.50;96.50;;;;;;5065206;28;20333;-56
2021/08/03 10:03:26;;;;;;;;;;;21.00;96.80;;;;;;5076058;28;19931;-56
2021/08/03 10:06:15;;;;;;;;;;;21.00;96.70;;;;;;5082975;28;19972;-57
2021/08/03 10:09:05;;;;;;;;;;;21.40;96.50;;;;;;5085132;28;19931;-56
2021/08/03 10:11:54;;;;;;;;;;;22.20;95.80;;;;;;5074352;28;20272;-56
2021/08/03 10:15:12;;;;;;;;;;;22.60;94.70;;;;;;5071906;28;20376;-56
2021/08/03 10:18:01;;;;;;;;;;;22.10;95.70;;;;;;5087842;28;19931;-57
2021/08/03 10:20:51;;;;;;;;;;;21.70;97.20;;;;;;5061786;28;20022;-56
2021/08/03 10:24:10;;;;;;;;;;;21.80;97.10;;;;;;5075619;28;19924;-55
2021/08/03 10:27:06;;;;;;;;;;;21.00;98.50;;;;;;5081208;28;19927;-56
2021/08/03 10:29:57;;;;;;;;;;;21.00;99.50;;;;;;5074431;28;19924;-57
2021/08/03 10:32:49;;;;;;;;;;;20.90;99.40;;;;;;5070097;28;20401;-57
2021/08/03 10:35:39;;;;;;;;;;;21.50;98.20;;;;;;5072345;28;19956;-55
2021/08/03 10:38:29;;;;;;;;;;;21.80;97.00;;;;;;5067213;28;20352;-56
2021/08/03 10:41:18;;;;;;;;;;;21.70;97.10;;;;;;5076522;28;20384;-57
2021/08/03 10:44:27;;;;;;;;;;;21.70;97.20;;;;;;5086715;28;19925;-56
2021/08/03 10:47:36;;;;;;;;;;;21.40;97.70;;;;;;5069380;28;19929;-58
2021/08/03 10:50:32;;;;;;;;;;;20.90;98.20;;;;;;5087724;28;20015;-56
2021/08/03 10:53:20;;;;;;;;;;;21.00;99.00;;;;;;5081603;28;20368;-58
2021/08/03 10:56:09;;;;;;;;;;;21.40;98.20;;;;;;5075098;28;19925;-56
2021/08/03 10:59:13;;;;;;;;;;;21.00;98.70;;;;;;5083234;28;19924;-55
2021/08/03 11:02:26;;;;;;;;;;;21.00;99.80;;;;;;5080056;28;19928;-58
2021/08/03 11:05:29;;;;;;;;;;;21.10;99.80;;;;;;5083664;28;20015;-56
2021/08/03 11:08:35;;;;;;;;;;;20.80;99.90;;;;;;5086878;28;19925;-56
2021/08/03 11:11:27;;;;;;;;;;;20.80;99.90;;;;;;5082636;28;19931;-56
2021/08/03 11:14:27;;;;;;;;;;;20.60;99.90;;;;;;5071060;28;19931;-56
2021/08/03 11:17:31;;;;;;;;;;;21.00;99.90;;;;;;5077875;28;20288;-56
2021/08/03 11:20:38;;;;;;;;;;;21.20;99.90;;;;;;5077389;28;19924;-56
2021/08/03 11:23:42;;;;;;;;;;;21.20;99.90;;;;;;5075373;28;19954;-58
2021/08/03 11:26:33;;;;;;;;;;;20.90;99.90;;;;;;5063087;28;19924;-56
2021/08/03 11:29:24;;;;;;;;;;;20.60;99.90;;;;;;5085116;28;19924;-56
2021/08/03 11:32:20;;;;;;;;;;;20.80;99.90;;;;;;5074039;28;19924;-56
2021/08/03 11:35:09;;;;;;;;;;;20.90;99.90;;;;;;5087455;28;19924;-58
2021/08/03 11:38:02;;;;;;;;;;;20.70;99.90;;;;;;5072850;28;19924;-56
2021/08/03 11:40:57;;;;;;;;;;;20.80;99.90;;;;;;5090127;28;20016;-56
2021/08/03 11:43:47;;;;;;;;;;;20.90;99.90;;;;;;5087117;28;19971;-56
2021/08/03 11:46:35;;;;;;;;;;;20.80;99.90;;;;;;5072847;28;19931;-56
2021/08/03 11:49:32;;;;;;;;;;;21.00;99.90;;;;;;5083085;28;20288;-56
2021/08/03 11:52:22;;;;;;;;;;;21.10;99.90;;;;;;5088585;28;19973;-56
2021/08/03 11:55:13;;;;;;;;;;;21.30;99.90;;;;;;5089793;28;19924;-56
2021/08/03 11:58:02;;;;;;;;;;;21.90;98.40;;;;;;5093244;28;20054;-56
2021/08/03 12:00:53;;;;;;;;;;;22.10;98.40;;;;;;5090824;28;20347;-56
2021/08/03 12:03:43;;;;;;;;;;;21.70;97.90;;;;;;5085099;28;19935;-56
2021/08/03 12:06:32;;;;;;;;;;;21.90;97.60;;;;;;5084192;28;20452;-56
2021/08/03 12:09:22;;;;;;;;;;;21.80;96.40;;;;;;5095166;28;19926;-56
2021/08/03 12:12:15;;;;;;;;;;;22.10;96.70;;;;;;5093880;28;19931;-56
2021/08/03 12:15:06;;;;;;;;;;;22.30;96.90;;;;;;5114376;27;19928;-56
2021/08/03 12:18:04;;;;;;;;;;;22.80;96.70;;;;;;5095136;28;19932;-56
2021/08/03 12:20:54;;;;;;;;;;;22.30;96.20;;;;;;5098757;28;19939;-56
2021/08/03 12:23:43;;;;;;;;;;;22.80;96.70;;;;;;5088011;28;19932;-56
2021/08/03 12:26:31;;;;;;;;;;;23.10;95.60;;;;;;5083622;28;19924;-56
2021/08/03 12:29:33;;;;;;;;;;;22.60;95.70;;;;;;5090224;28;20072;-56
2021/08/03 12:32:38;;;;;;;;;;;21.40;97.20;;;;;;5080995;28;19928;-56
2021/08/03 12:35:29;;;;;;;;;;;21.50;98.20;;;;;;5093241;28;20030;-56
2021/08/03 12:38:20;;;;;;;;;;;21.20;97.50;;;;;;5095592;28;19971;-56
2021/08/03 12:41:15;;;;;;;;;;;21.40;97.50;;;;;;5087976;28;19925;-56
2021/08/03 12:44:04;;;;;;;;;;;21.40;97.50;;;;;;5086235;28;19985;-56
2021/08/03 12:46:53;;;;;;;;;;;21.30;98.00;;;;;;5074273;28;19932;-56
2021/08/03 12:49:43;;;;;;;;;;;21.20;98.40;;;;;;5089572;28;19970;-57
2021/08/03 12:52:33;;;;;;;;;;;20.90;99.50;;;;;;5090552;28;19924;-57
2021/08/03 12:55:24;;;;;;;;;;;20.30;99.90;;;;;;5085490;28;19928;-56
2021/08/03 12:58:32;;;;;;;;;;;18.40;99.90;;;;;;5092417;28;19931;-56
2021/08/03 13:01:22;;;;;;;;;;;17.40;99.90;;;;;;5090961;28;20372;-56
2021/08/03 13:04:11;;;;;;;;;;;16.80;99.90;;;;;;5098155;28;20296;-57
2021/08/03 13:07:01;;;;;;;;;;;16.50;99.90;;;;;;5085183;28;19924;-57
2021/08/03 13:09:51;;;;;;;;;;;16.20;99.90;;;;;;5085917;28;19931;-57
2021/08/03 13:12:40;;;;;;;;;;;16.30;99.90;;;;;;5087234;28;19924;-57
2021/08/03 13:15:29;;;;;;;;;;;16.30;99.90;;;;;;5074228;28;19931;-56
2021/08/03 13:18:18;;;;;;;;;;;16.50;99.90;;;;;;5078195;28;19931;-57
2021/08/03 13:21:07;;;;;;;;;;;16.70;99.90;;;;;;5085209;28;20007;-57
2021/08/03 13:23:56;;;;;;;;;;;17.00;99.90;;;;;;5083864;28;19928;-56
2021/08/03 13:26:47;;;;;;;;;;;17.40;99.90;;;;;;5090648;28;19924;-56
2021/08/03 13:29:35;;;;;;;;;;;17.80;99.90;;;;;;5082131;28;19935;-56
2021/08/03 13:32:24;;;;;;;;;;;18.20;99.90;;;;;;5085902;28;20400;-56
2021/08/03 13:35:13;;;;;;;;;;;18.50;99.90;;;;;;5101892;28;19925;-56
2021/08/03 13:38:02;;;;;;;;;;;18.60;99.90;;;;;;5085285;28;20355;-56
2021/08/03 13:40:50;;;;;;;;;;;18.30;99.90;;;;;;5093284;28;19988;-56
2021/08/03 13:43:41;;;;;;;;;;;18.40;99.90;;;;;;5111847;27;19931;-56
2021/08/03 13:46:36;;;;;;;;;;;18.40;99.90;;;;;;5081520;28;19931;-57
2021/08/03 13:49:25;;;;;;;;;;;18.50;99.90;;;;;;5095106;28;19931;-56
2021/08/03 13:52:13;;;;;;;;;;;18.60;99.90;;;;;;5094309;28;19987;-56
2021/08/03 13:55:01;;;;;;;;;;;18.80;99.90;;;;;;5095505;28;19924;-57
2021/08/03 13:57:50;;;;;;;;;;;18.70;99.90;;;;;;5094578;28;19924;-56
2021/08/03 14:00:41;;;;;;;;;;;18.70;99.90;;;;;;5073658;28;19924;-59
2021/08/03 14:03:30;;;;;;;;;;;19.00;99.90;;;;;;5080501;28;19924;-57
2021/08/03 14:06:20;;;;;;;;;;;19.00;99.90;;;;;;5088060;28;19925;-56
2021/08/03 14:09:09;;;;;;;;;;;19.10;99.90;;;;;;5098875;28;19969;-56
2021/08/03 14:15:13;;;;;;;;;;;19.60;99.90;;;;;;5076791;28;20258;-56
2021/08/03 14:18:03;;;;;;;;;;;19.70;99.90;;;;;;5087651;28;20444;-56
2021/08/03 14:20:52;;;;;;;;;;;19.90;99.90;;;;;;5081668;28;19924;-56
2021/08/03 14:23:42;;;;;;;;;;;20.00;99.90;;;;;;5087513;28;20041;-57
2021/08/03 14:26:31;;;;;;;;;;;19.90;99.90;;;;;;5088627;28;19927;-56
2021/08/03 14:29:19;;;;;;;;;;;19.90;99.90;;;;;;5092769;28;19932;-59
2021/08/03 14:32:08;;;;;;;;;;;19.90;99.90;;;;;;5085866;28;19924;-55
2021/08/03 14:34:58;;;;;;;;;;;19.80;99.90;;;;;;5086649;28;20299;-56
2021/08/03 14:37:47;;;;;;;;;;;19.70;99.90;;;;;;5070001;28;19932;-56
2021/08/03 14:40:37;;;;;;;;;;;19.50;99.90;;;;;;5085381;28;20420;-56
2021/08/03 14:43:32;;;;;;;;;;;19.70;99.90;;;;;;5077881;28;19931;-55
2021/08/03 14:46:21;;;;;;;;;;;19.80;99.90;;;;;;5075956;28;19930;-56
2021/08/03 14:49:12;;;;;;;;;;;19.70;99.90;;;;;;5086156;28;19931;-56
2021/08/03 14:52:02;;;;;;;;;;;19.90;99.90;;;;;;5088757;28;20026;-56
2021/08/03 14:54:51;;;;;;;;;;;20.50;99.90;;;;;;5091705;28;19924;-56
2021/08/03 14:57:39;;;;;;;;;;;20.40;99.90;;;;;;5091294;28;19932;-56
2021/08/03 15:00:28;;;;;;;;;;;20.50;99.90;;;;;;5079903;28;20006;-56
2021/08/03 15:03:18;;;;;;;;;;;20.60;99.90;;;;;;5081415;28;21318;-57
2021/08/03 15:06:08;;;;;;;;;;;20.60;99.90;;;;;;5087038;28;19970;-56
2021/08/03 15:08:58;;;;;;;;;;;20.70;99.90;;;;;;5091798;28;19928;-56
2021/08/03 15:11:46;;;;;;;;;;;20.90;99.90;;;;;;5074732;28;19935;-57
2021/08/03 15:14:35;;;;;;;;;;;21.00;99.90;;;;;;5106441;28;19928;-56
2021/08/03 15:17:24;;;;;;;;;;;21.00;99.90;;;;;;5080152;28;19928;-56
2021/08/03 15:23:25;;;;;;;;;;;21.50;99.90;;;;;;5085242;28;19924;-56
2021/08/03 15:26:15;;;;;;;;;;;21.30;99.90;;;;;;5084005;28;20049;-56
2021/08/03 15:29:05;;;;;;;;;;;21.20;99.90;;;;;;5083785;28;20011;-56
2021/08/03 15:31:53;;;;;;;;;;;20.90;99.90;;;;;;5078044;28;19928;-56
2021/08/03 15:34:42;;;;;;;;;;;20.80;99.90;;;;;;5081743;28;19928;-58
2021/08/03 15:37:56;;;;;;;;;;;21.10;99.90;;;;;;5075967;28;19994;-56
2021/08/03 15:40:44;;;;;;;;;;;21.40;99.90;;;;;;5076089;28;19935;-56
2021/08/03 15:43:34;;;;;;;;;;;21.40;99.90;;;;;;5078848;28;19924;-56
2021/08/03 15:46:23;;;;;;;;;;;21.50;99.90;;;;;;5079520;28;20027;-56
2021/08/03 15:49:38;;;;;;;;;;;21.40;99.90;;;;;;5080927;28;20322;-56
2021/08/03 15:52:27;;;;;;;;;;;21.20;99.90;;;;;;5087969;28;19928;-56
2021/08/03 15:55:15;;;;;;;;;;;21.00;99.90;;;;;;5091083;28;19931;-59
2021/08/03 15:58:04;;;;;;;;;;;20.70;99.90;;;;;;5077707;28;19986;-56
2021/08/03 16:00:54;;;;;;;;;;;20.60;99.90;;;;;;5068806;28;19928;-55
2021/08/03 16:03:42;;;;;;;;;;;20.40;99.90;;;;;;5085595;28;20016;-56
2021/08/03 16:06:32;;;;;;;;;;;20.40;99.90;;;;;;5075922;28;19925;-56
2021/08/03 16:09:20;;;;;;;;;;;20.60;99.90;;;;;;5087558;28;20367;-56
2021/08/03 16:12:09;;;;;;;;;;;20.90;99.90;;;;;;5071034;28;20361;-56
2021/08/03 16:14:58;;;;;;;;;;;21.00;99.90;;;;;;5079224;28;20338;-56
2021/08/03 16:17:51;;;;;;;;;;;21.00;99.90;;;;;;5114904;28;20024;-56
2021/08/03 16:20:40;;;;;;;;;;;21.00;99.90;;;;;;5085734;28;19931;-58
2021/08/03 16:23:29;;;;;;;;;;;21.20;99.90;;;;;;5087369;28;19966;-56
2021/08/03 16:26:19;;;;;;;;;;;21.00;99.90;;;;;;5085226;28;19924;-56
2021/08/03 16:29:08;;;;;;;;;;;20.90;99.90;;;;;;5089753;28;20029;-58
2021/08/03 16:31:58;;;;;;;;;;;20.90;99.90;;;;;;5076693;28;19924;-59
2021/08/03 16:34:50;;;;;;;;;;;21.10;99.90;;;;;;5083305;28;20449;-56
2021/08/03 16:37:40;;;;;;;;;;;21.20;99.90;;;;;;5079790;28;19925;-56
2021/08/03 16:40:30;;;;;;;;;;;21.20;99.90;;;;;;5077876;28;19930;-56
2021/08/03 16:43:19;;;;;;;;;;;21.10;99.90;;;;;;5074640;28;19924;-57
2021/08/03 16:46:09;;;;;;;;;;;21.00;99.90;;;;;;5081017;28;20384;-56